createdAt,value
2018-07-02T00:00:39.600Z,48.54
2018-07-02T00:03:08.458Z,48.18
2018-07-02T00:05:48.565Z,48.55
2018-07-02T00:08:17.724Z,48.69
2018-07-02T00:10:46.927Z,48.36
2018-07-02T00:13:16.727Z,48.86
2018-07-02T00:15:46.106Z,48.56
2018-07-02T00:18:15.203Z,49.19
2018-07-02T00:20:44.745Z,49.05
2018-07-02T00:23:13.678Z,48.92
2018-07-02T00:25:42.798Z,48.82
2018-07-02T00:28:11.593Z,49.31
2018-07-02T00:30:40.838Z,49.34
2018-07-02T00:33:09.677Z,49.25
2018-07-02T00:35:38.805Z,49.53
2018-07-02T00:38:08.071Z,49.87
2018-07-02T00:40:37.167Z,49.41
2018-07-02T00:43:06.400Z,49.66
2018-07-02T00:45:36.253Z,49.94
2018-07-02T00:48:06.288Z,50.25
2018-07-02T00:50:35.972Z,49.75
2018-07-02T00:53:06.208Z,50.50
2018-07-02T00:55:36.157Z,50.39
2018-07-02T00:58:06.273Z,50.66
2018-07-02T01:00:35.741Z,50.76
2018-07-02T01:03:04.614Z,50.64
2018-07-02T01:05:33.587Z,51.08
2018-07-02T01:08:02.974Z,51.43
2018-07-02T01:10:32.053Z,51.45
2018-07-02T01:13:01.455Z,51.09
2018-07-02T01:15:31.580Z,51.60
2018-07-02T01:18:00.644Z,51.64
2018-07-02T01:20:29.510Z,51.18
2018-07-02T01:22:59.083Z,51.52
2018-07-02T01:25:27.940Z,51.90
2018-07-02T01:27:57.403Z,52.34
2018-07-02T01:30:26.285Z,52.21
2018-07-02T01:32:55.154Z,52.32
2018-07-02T01:35:24.587Z,52.67
2018-07-02T01:37:53.938Z,52.75
2018-07-02T01:40:23.624Z,52.81
2018-07-02T01:42:52.502Z,52.71
2018-07-02T01:45:21.645Z,53.04
2018-07-02T01:47:50.717Z,53.40
2018-07-02T01:50:20.289Z,53.45
2018-07-02T01:52:49.100Z,53.32
2018-07-02T01:55:18.186Z,53.47
2018-07-02T01:57:47.075Z,53.62
2018-07-02T02:00:16.054Z,54.19
2018-07-02T02:02:45.176Z,53.85
2018-07-02T02:05:14.036Z,54.30
2018-07-02T02:07:43.164Z,54.40
2018-07-02T02:10:12.769Z,54.64
2018-07-02T02:12:42.351Z,54.92
2018-07-02T02:15:11.396Z,54.45
2018-07-02T02:17:40.458Z,54.80
2018-07-02T02:20:09.600Z,55.14
2018-07-02T02:22:38.766Z,54.82
2018-07-02T02:25:08.057Z,55.08
2018-07-02T02:27:37.124Z,55.60
2018-07-02T02:30:07.300Z,55.02
2018-07-02T02:32:36.896Z,54.89
2018-07-02T02:35:06.623Z,55.84
2018-07-02T02:37:35.870Z,55.72
2018-07-02T02:40:05.534Z,55.90
2018-07-02T02:42:35.113Z,55.93
2018-07-02T02:45:04.494Z,56.46
2018-07-02T02:47:33.423Z,56.41
2018-07-02T02:50:02.327Z,56.35
2018-07-02T02:52:31.292Z,55.85
2018-07-02T02:55:00.747Z,56.29
2018-07-02T02:57:29.859Z,56.67
2018-07-02T02:59:58.923Z,56.84
2018-07-02T03:02:27.792Z,56.09
2018-07-02T03:04:56.955Z,56.42
2018-07-02T03:07:26.125Z,56.77
2018-07-02T03:09:54.939Z,56.95
2018-07-02T03:12:24.269Z,56.89
2018-07-02T03:14:53.639Z,57.27
2018-07-02T03:17:22.647Z,57.13
2018-07-02T03:19:51.612Z,57.08
2018-07-02T03:22:20.477Z,57.40
2018-07-02T03:24:49.641Z,57.01
2018-07-02T03:27:18.633Z,57.36
2018-07-02T03:29:47.524Z,57.60
2018-07-02T03:32:16.369Z,57.34
2018-07-02T03:34:45.598Z,57.19
2018-07-02T03:37:14.480Z,57.04
2018-07-02T03:39:44.191Z,57.48
2018-07-02T03:42:13.747Z,57.12
2018-07-02T03:44:43.341Z,57.86
2018-07-02T03:47:12.254Z,57.97
2018-07-02T03:49:41.718Z,57.43
2018-07-02T03:52:10.943Z,57.99
2018-07-02T03:54:40.724Z,57.80
2018-07-02T03:57:09.807Z,57.90
2018-07-02T03:59:38.869Z,58.15
2018-07-02T04:02:07.718Z,58.17
2018-07-02T04:04:37.334Z,58.43
2018-07-02T04:07:06.139Z,58.42
2018-07-02T04:09:35.134Z,58.23
2018-07-02T04:12:03.975Z,58.68
2018-07-02T04:14:33.074Z,58.36
2018-07-02T04:17:02.624Z,58.58
2018-07-02T04:19:31.962Z,58.40
2018-07-02T04:22:00.764Z,58.58
2018-07-02T04:24:29.854Z,58.35
2018-07-02T04:26:59.091Z,58.95
2018-07-02T04:29:28.806Z,58.97
2018-07-02T04:31:58.107Z,59.22
2018-07-02T04:34:27.270Z,58.31
2018-07-02T04:36:56.930Z,59.10
2018-07-02T04:39:25.790Z,59.40
2018-07-02T04:41:55.521Z,59.02
2018-07-02T04:44:24.993Z,58.78
2018-07-02T04:46:53.830Z,58.54
2018-07-02T04:49:22.650Z,58.86
2018-07-02T04:51:51.928Z,58.31
2018-07-02T04:54:20.739Z,58.36
2018-07-02T04:56:49.798Z,58.40
2018-07-02T04:59:19.227Z,57.98
2018-07-02T05:01:48.328Z,57.74
2018-07-02T05:04:18.117Z,57.87
2018-07-02T05:06:47.032Z,57.45
2018-07-02T05:09:16.245Z,58.28
2018-07-02T05:11:45.195Z,57.61
2018-07-02T05:14:14.402Z,57.84
2018-07-02T05:16:43.246Z,56.95
2018-07-02T05:19:12.457Z,57.77
2018-07-02T05:21:41.662Z,57.44
2018-07-02T05:24:10.930Z,57.35
2018-07-02T05:26:39.784Z,57.04
2018-07-02T05:29:08.583Z,56.72
2018-07-02T05:31:37.756Z,56.64
2018-07-02T05:34:07.004Z,56.54
2018-07-02T05:36:35.955Z,55.54
2018-07-02T05:39:08.049Z,54.61
2018-07-02T05:41:37.171Z,54.14
2018-07-02T05:44:06.262Z,54.26
2018-07-02T05:46:35.397Z,53.46
2018-07-02T05:49:04.613Z,53.36
2018-07-02T05:51:34.017Z,53.23
2018-07-02T05:54:03.519Z,53.34
2018-07-02T05:56:32.424Z,52.87
2018-07-02T05:59:01.965Z,51.42
2018-07-02T06:01:31.166Z,52.58
2018-07-02T06:04:00.225Z,52.37
2018-07-02T06:06:29.559Z,51.52
2018-07-02T06:08:58.256Z,51.59
2018-07-02T06:11:27.123Z,51.00
2018-07-02T06:13:56.020Z,49.80
2018-07-02T06:16:24.914Z,49.82
2018-07-02T06:18:53.766Z,49.04
2018-07-02T06:21:22.551Z,48.80
2018-07-02T06:23:51.567Z,48.24
2018-07-02T06:26:21.168Z,47.94
2018-07-02T06:28:50.296Z,47.80
2018-07-02T06:31:19.146Z,48.56
2018-07-02T06:33:48.217Z,47.21
2018-07-02T06:36:17.177Z,46.96
2018-07-02T06:38:45.998Z,46.52
2018-07-02T06:41:15.680Z,45.95
2018-07-02T06:43:44.628Z,46.95
2018-07-02T06:46:13.466Z,46.82
2018-07-02T06:48:42.448Z,45.07
2018-07-02T06:51:11.365Z,44.31
2018-07-02T06:53:40.652Z,45.06
2018-07-02T06:56:09.828Z,44.21
2018-07-02T06:58:39.150Z,44.71
2018-07-02T07:01:08.143Z,43.08
2018-07-02T07:03:38.841Z,42.80
2018-07-02T07:06:08.107Z,42.36
2018-07-02T07:08:37.192Z,41.91
2018-07-02T07:11:06.196Z,42.18
2018-07-02T07:13:35.739Z,42.57
2018-07-02T07:16:04.724Z,42.07
2018-07-02T07:18:35.305Z,42.82
2018-07-02T07:21:04.281Z,41.20
2018-07-02T07:23:33.288Z,40.68
2018-07-02T07:26:02.989Z,41.26
2018-07-02T07:28:32.247Z,42.67
2018-07-02T07:31:01.777Z,40.75
2018-07-02T07:33:30.697Z,39.62
2018-07-02T07:36:00.261Z,39.60
2018-07-02T07:38:30.189Z,38.82
2018-07-02T07:40:59.190Z,38.61
2018-07-02T07:43:29.108Z,38.50
2018-07-02T07:45:58.476Z,38.46
2018-07-02T07:48:28.376Z,39.04
2018-07-02T07:50:57.637Z,38.62
2018-07-02T07:53:26.647Z,40.01
2018-07-02T07:55:55.737Z,39.00
2018-07-02T07:58:24.714Z,39.42
2018-07-02T08:00:53.790Z,37.86
2018-07-02T08:03:22.713Z,38.46
2018-07-02T08:05:51.658Z,36.76
2018-07-02T08:08:21.175Z,37.38
2018-07-02T08:10:50.136Z,36.25
2018-07-02T08:13:20.200Z,35.98
2018-07-02T08:15:49.518Z,36.71
2018-07-02T08:18:22.499Z,36.58
2018-07-02T08:20:58.115Z,35.96
2018-07-02T08:23:27.448Z,35.49
2018-07-02T08:25:59.271Z,35.07
2018-07-02T08:28:28.459Z,35.69
2018-07-02T08:30:57.760Z,36.59
2018-07-02T08:33:26.732Z,35.48
2018-07-02T08:35:56.027Z,36.45
2018-07-02T08:38:24.927Z,37.25
2018-07-02T08:40:54.107Z,36.93
2018-07-02T08:43:22.955Z,35.50
2018-07-02T08:45:52.024Z,36.16
2018-07-02T08:48:21.173Z,34.36
2018-07-02T08:50:49.982Z,35.36
2018-07-02T08:53:19.727Z,34.86
2018-07-02T08:55:48.579Z,34.34
2018-07-02T08:58:17.744Z,33.74
2018-07-02T09:00:46.870Z,33.92
2018-07-02T09:03:16.391Z,34.09
2018-07-02T09:05:45.503Z,33.29
2018-07-02T09:08:14.656Z,32.72
2018-07-02T09:10:43.971Z,31.24
2018-07-02T09:13:13.129Z,32.64
2018-07-02T09:15:42.537Z,32.14
2018-07-02T09:18:12.043Z,30.41
2018-07-02T09:20:41.241Z,29.01
2018-07-02T09:23:10.112Z,28.74
2018-07-02T09:25:39.230Z,29.57
2018-07-02T09:28:08.745Z,28.62
2018-07-02T09:30:37.804Z,26.69
2018-07-02T09:33:06.932Z,27.79
2018-07-02T09:35:35.850Z,26.73
2018-07-02T09:38:05.410Z,28.11
2018-07-02T09:40:34.737Z,26.49
2018-07-02T09:43:03.966Z,26.28
2018-07-02T09:45:33.274Z,25.24
2018-07-02T09:48:02.253Z,24.63
2018-07-02T09:50:31.533Z,26.06
2018-07-02T09:53:00.729Z,26.82
2018-07-02T09:55:30.249Z,26.10
2018-07-02T09:57:59.686Z,25.75
2018-07-02T10:00:28.988Z,25.55
2018-07-02T10:02:59.016Z,25.23
2018-07-02T10:05:28.267Z,24.28
2018-07-02T10:07:57.336Z,24.08
2018-07-02T10:10:26.194Z,24.18
2018-07-02T10:19:04.532Z,24.14
2018-07-02T10:21:33.480Z,23.25
2018-07-02T10:24:02.318Z,21.68
2018-07-02T10:26:31.267Z,21.74
2018-07-02T10:29:00.778Z,21.79
2018-07-02T10:31:29.979Z,22.13
2018-07-02T10:33:59.385Z,21.06
2018-07-02T10:36:28.571Z,20.85
2018-07-02T10:38:57.817Z,21.24
2018-07-02T10:41:26.950Z,20.27
2018-07-02T10:43:56.420Z,21.11
2018-07-02T10:46:25.281Z,20.48
2018-07-02T10:48:54.272Z,20.40
2018-07-02T10:51:23.292Z,19.28
2018-07-02T10:53:52.597Z,21.28
2018-07-02T10:56:21.533Z,20.97
2018-07-02T10:58:50.515Z,21.67
2018-07-02T11:01:20.234Z,22.23
2018-07-02T11:03:49.216Z,19.92
2018-07-02T11:06:18.398Z,20.31
2018-07-02T11:08:47.307Z,19.81
2018-07-02T11:11:16.352Z,20.07
2018-07-02T11:13:45.286Z,20.04
2018-07-02T11:16:15.065Z,19.27
2018-07-02T11:18:44.613Z,18.44
2018-07-02T11:21:14.246Z,18.84
2018-07-02T11:23:44.121Z,18.34
2018-07-02T11:26:14.747Z,19.61
2018-07-02T11:28:44.113Z,19.34
2018-07-02T11:31:13.398Z,19.50
2018-07-02T11:33:45.152Z,19.51
2018-07-02T11:36:15.254Z,19.74
2018-07-02T11:38:44.500Z,19.59
2018-07-02T11:41:14.023Z,18.78
2018-07-02T11:43:43.232Z,18.50
2018-07-02T11:46:12.721Z,18.92
2018-07-02T11:48:42.129Z,20.04
2018-07-02T11:51:11.508Z,18.31
2018-07-02T11:53:40.592Z,17.89
2018-07-02T11:56:09.621Z,18.87
2018-07-02T11:58:39.103Z,18.14
2018-07-02T12:01:08.062Z,18.89
2018-07-02T12:03:37.585Z,17.58
2018-07-02T12:06:06.961Z,19.04
2018-07-02T12:08:35.946Z,16.58
2018-07-02T12:11:05.021Z,17.75
2018-07-02T12:13:34.264Z,17.32
2018-07-02T12:16:03.288Z,17.71
2018-07-02T12:18:32.420Z,16.91
2018-07-02T12:21:01.504Z,17.18
2018-07-02T12:23:30.893Z,17.33
2018-07-02T12:25:59.901Z,17.45
2018-07-02T12:28:29.328Z,17.18
2018-07-02T12:30:58.645Z,16.09
2018-07-02T12:33:27.753Z,17.27
2018-07-02T12:35:57.077Z,17.29
2018-07-02T12:38:26.104Z,17.50
2018-07-02T12:40:55.847Z,17.02
2018-07-02T12:43:25.392Z,16.56
2018-07-02T12:45:54.780Z,18.42
2018-07-02T12:48:24.123Z,16.25
2018-07-02T12:50:53.359Z,16.87
2018-07-02T12:53:22.447Z,17.67
2018-07-02T12:55:51.738Z,16.97
2018-07-02T12:58:21.023Z,17.30
2018-07-02T13:00:50.167Z,17.17
2018-07-02T13:03:19.534Z,16.24
2018-07-02T13:05:48.777Z,16.92
2018-07-02T13:08:18.211Z,16.58
2018-07-02T13:10:47.211Z,16.83
2018-07-02T13:13:16.141Z,17.86
2018-07-02T13:15:45.135Z,17.12
2018-07-02T13:18:15.430Z,15.93
2018-07-02T13:20:45.037Z,17.22
2018-07-02T13:23:14.273Z,16.81
2018-07-02T13:25:43.545Z,17.27
2018-07-02T13:28:13.042Z,17.16
2018-07-02T13:30:42.582Z,17.24
2018-07-02T13:33:12.267Z,17.60
2018-07-02T13:35:41.261Z,17.03
2018-07-02T13:38:12.040Z,17.40
2018-07-02T13:40:41.853Z,17.93
2018-07-02T13:43:11.692Z,17.64
2018-07-02T13:45:40.637Z,16.76
2018-07-02T13:48:10.892Z,16.41
2018-07-02T13:50:41.045Z,17.21
2018-07-02T13:53:10.703Z,16.45
2018-07-02T13:55:40.674Z,16.37
2018-07-02T13:58:09.608Z,16.09
2018-07-02T14:00:38.561Z,17.11
2018-07-02T14:03:07.941Z,15.98
2018-07-02T14:05:36.958Z,17.88
2018-07-02T14:08:05.975Z,17.37
2018-07-02T14:10:36.106Z,16.89
2018-07-02T14:13:05.254Z,16.71
2018-07-02T14:15:34.343Z,16.51
2018-07-02T14:18:04.117Z,17.04
2018-07-02T14:20:33.386Z,16.62
2018-07-02T14:23:02.932Z,16.50
2018-07-02T14:25:32.125Z,16.74
2018-07-02T14:28:02.497Z,17.24
2018-07-02T14:30:32.895Z,17.26
2018-07-02T14:33:02.344Z,16.46
2018-07-02T14:35:31.935Z,16.45
2018-07-02T14:38:01.023Z,16.65
2018-07-02T14:40:30.118Z,17.11
2018-07-02T14:42:59.940Z,17.40
2018-07-02T14:45:29.686Z,17.31
2018-07-02T14:47:58.946Z,18.37
2018-07-02T14:50:28.169Z,16.86
2018-07-02T14:52:57.199Z,17.46
2018-07-02T14:55:26.417Z,16.76
2018-07-02T14:57:55.443Z,17.04
2018-07-02T15:00:24.729Z,17.16
2018-07-02T15:02:54.320Z,16.92
2018-07-02T15:05:25.770Z,17.36
2018-07-02T15:07:55.352Z,17.05
2018-07-02T15:10:24.787Z,17.63
2018-07-02T15:12:54.326Z,16.87
2018-07-02T15:15:23.412Z,17.74
2018-07-02T15:17:52.606Z,17.50
2018-07-02T15:20:22.224Z,18.25
2018-07-02T15:22:51.603Z,17.34
2018-07-02T15:25:21.622Z,17.42
2018-07-02T15:27:50.742Z,17.43
2018-07-02T15:30:20.172Z,18.56
2018-07-02T15:32:49.083Z,17.93
2018-07-02T15:35:18.047Z,17.62
2018-07-02T15:37:47.001Z,17.64
2018-07-02T15:40:16.213Z,17.79
2018-07-02T15:42:45.035Z,18.46
2018-07-02T15:45:14.191Z,18.33
2018-07-02T15:47:43.384Z,18.47
2018-07-02T15:50:12.620Z,18.28
2018-07-02T15:52:41.585Z,19.09
2018-07-02T15:55:11.078Z,19.63
2018-07-02T15:57:40.061Z,19.10
2018-07-02T16:00:09.263Z,18.87
2018-07-02T16:02:38.188Z,19.27
2018-07-02T16:05:07.215Z,18.23
2018-07-02T16:07:36.350Z,19.47
2018-07-02T16:10:05.572Z,18.57
2018-07-02T16:12:34.596Z,19.00
2018-07-02T16:15:03.823Z,19.04
2018-07-02T16:17:33.086Z,18.14
2018-07-02T16:20:02.729Z,19.45
2018-07-02T16:22:32.358Z,18.29
2018-07-02T16:25:01.362Z,18.56
2018-07-02T16:27:30.573Z,19.05
2018-07-02T16:30:00.236Z,18.63
2018-07-02T16:32:29.224Z,18.44
2018-07-02T16:34:59.713Z,19.72
2018-07-02T16:37:28.644Z,18.79
2018-07-02T16:39:58.320Z,19.22
2018-07-02T16:42:27.340Z,19.53
2018-07-02T16:44:56.621Z,18.81
2018-07-02T16:47:26.230Z,19.50
2018-07-02T16:49:55.102Z,20.03
2018-07-02T16:52:24.393Z,19.23
2018-07-02T16:54:53.631Z,19.71
2018-07-02T16:57:23.380Z,19.53
2018-07-02T16:59:52.375Z,20.14
2018-07-02T17:02:21.656Z,19.51
2018-07-02T17:04:50.537Z,20.67
2018-07-02T17:07:19.455Z,20.20
2018-07-02T17:09:48.304Z,19.67
2018-07-02T17:12:17.906Z,21.12
2018-07-02T17:14:46.814Z,22.97
2018-07-02T17:17:15.710Z,24.64
2018-07-02T17:19:44.612Z,25.67
2018-07-02T17:22:14.109Z,26.73
2018-07-02T17:24:43.353Z,27.72
2018-07-02T17:27:12.308Z,28.48
2018-07-02T17:29:41.309Z,28.00
2018-07-02T17:32:11.136Z,28.44
2018-07-02T17:34:40.042Z,29.16
2018-07-02T17:37:09.292Z,29.79
2018-07-02T17:39:38.766Z,29.20
2018-07-02T17:42:08.326Z,30.16
2018-07-02T17:44:37.580Z,30.45
2018-07-02T17:47:07.065Z,30.54
2018-07-02T17:49:36.656Z,30.63
2018-07-02T17:52:05.583Z,31.05
2018-07-02T17:54:34.873Z,31.26
2018-07-02T17:57:04.565Z,31.30
2018-07-02T17:59:34.268Z,31.35
2018-07-02T18:02:03.661Z,30.89
2018-07-02T18:04:33.069Z,32.33
2018-07-02T18:07:02.133Z,32.23
2018-07-02T18:09:31.350Z,32.17
2018-07-02T18:12:00.502Z,32.73
2018-07-02T18:14:29.975Z,33.10
2018-07-02T18:16:58.889Z,33.16
2018-07-02T18:19:28.432Z,32.61
2018-07-02T18:21:57.707Z,33.38
2018-07-02T18:24:26.808Z,34.20
2018-07-02T18:26:55.869Z,33.77
2018-07-02T18:29:25.620Z,33.44
2018-07-02T18:31:55.112Z,33.67
2018-07-02T18:34:24.049Z,33.87
2018-07-02T18:36:53.509Z,35.33
2018-07-02T18:39:22.780Z,35.61
2018-07-02T18:41:51.716Z,35.89
2018-07-02T18:44:20.750Z,35.74
2018-07-02T18:46:50.028Z,36.44
2018-07-02T18:49:18.933Z,36.46
2018-07-02T18:51:47.820Z,36.12
2018-07-02T18:54:16.752Z,36.98
2018-07-02T18:56:45.835Z,36.23
2018-07-02T18:59:14.713Z,37.33
2018-07-02T19:01:45.035Z,37.34
2018-07-02T19:04:14.951Z,37.22
2018-07-02T19:06:44.260Z,37.67
2018-07-02T19:09:13.069Z,37.64
2018-07-02T19:11:42.255Z,37.76
2018-07-02T19:14:11.943Z,37.89
2018-07-02T19:16:40.848Z,38.08
2018-07-02T19:19:10.098Z,38.29
2018-07-02T19:21:39.409Z,38.39
2018-07-02T19:24:08.409Z,38.07
2018-07-02T19:26:37.247Z,38.26
2018-07-02T19:29:06.397Z,38.38
2018-07-02T19:31:35.602Z,38.29
2018-07-02T19:34:05.903Z,39.16
2018-07-02T19:36:35.416Z,39.18
2018-07-02T19:39:05.316Z,39.51
2018-07-02T19:41:34.182Z,39.38
2018-07-02T19:44:03.366Z,38.70
2018-07-02T19:46:32.109Z,39.63
2018-07-02T19:49:01.334Z,39.20
2018-07-02T19:51:30.492Z,39.72
2018-07-02T19:53:59.651Z,40.76
2018-07-02T19:56:29.213Z,41.14
2018-07-02T19:58:58.290Z,41.93
2018-07-02T20:01:27.592Z,42.36
2018-07-02T20:03:56.745Z,42.41
2018-07-02T20:06:26.456Z,42.71
2018-07-02T20:08:55.933Z,42.54
2018-07-02T20:11:25.481Z,43.22
2018-07-02T20:13:55.143Z,43.84
2018-07-02T20:16:24.411Z,43.58
2018-07-02T20:18:53.650Z,44.29
2018-07-02T20:21:22.642Z,44.54
2018-07-02T20:23:51.899Z,44.81
2018-07-02T20:26:20.822Z,44.55
2018-07-02T20:28:49.667Z,44.99
2018-07-02T20:31:18.666Z,45.31
2018-07-02T20:33:47.720Z,45.62
2018-07-02T20:36:16.481Z,45.13
2018-07-02T20:38:45.271Z,46.01
2018-07-02T20:41:14.194Z,45.86
2018-07-02T20:43:43.028Z,45.54
2018-07-02T20:46:12.168Z,46.15
2018-07-02T20:48:41.210Z,46.20
2018-07-02T20:51:10.870Z,46.12
2018-07-02T20:53:40.252Z,46.21
2018-07-02T20:56:09.823Z,46.85
2018-07-02T20:58:38.991Z,47.89
2018-07-02T21:01:08.017Z,47.84
2018-07-02T21:03:37.537Z,47.76
2018-07-02T21:06:07.284Z,48.47
2018-07-02T21:08:36.160Z,48.50
2018-07-02T21:11:05.226Z,49.27
2018-07-02T21:13:34.537Z,49.70
2018-07-02T21:16:03.893Z,49.93
2018-07-02T21:18:32.723Z,50.05
2018-07-02T21:21:01.602Z,49.90
2018-07-02T21:23:30.798Z,49.92
2018-07-02T21:25:59.672Z,50.31
2018-07-02T21:28:29.477Z,50.87
2018-07-02T21:30:58.833Z,50.61
2018-07-02T21:33:27.949Z,51.10
2018-07-02T21:35:57.434Z,52.00
2018-07-02T21:38:26.356Z,52.50
2018-07-02T21:40:56.061Z,52.27
2018-07-02T21:43:25.963Z,51.89
2018-07-02T21:45:55.885Z,52.54
2018-07-02T21:48:25.553Z,53.29
2018-07-02T21:50:54.991Z,53.01
2018-07-02T21:53:24.119Z,53.04
2018-07-02T21:55:54.654Z,53.96
2018-07-02T21:58:24.561Z,53.93
2018-07-02T22:00:53.645Z,54.34
2018-07-02T22:03:23.111Z,54.83
2018-07-02T22:05:52.607Z,54.82
2018-07-02T22:08:21.903Z,55.63
2018-07-02T22:10:51.616Z,55.79
2018-07-02T22:13:20.476Z,55.74
2018-07-02T22:15:49.729Z,55.21
2018-07-02T22:18:18.830Z,55.80
2018-07-02T22:20:48.041Z,55.82
2018-07-02T22:23:17.485Z,55.97
2018-07-02T22:25:46.756Z,55.79
2018-07-02T22:28:15.863Z,55.61
2018-07-02T22:30:45.125Z,56.24
2018-07-02T22:33:14.584Z,56.01
2018-07-02T22:35:44.388Z,56.64
2018-07-02T22:38:13.185Z,56.87
2018-07-02T22:40:42.247Z,56.96
2018-07-02T22:43:11.622Z,57.13
2018-07-02T22:45:40.639Z,57.38
2018-07-02T22:48:09.671Z,57.33
2018-07-02T22:50:39.067Z,57.83
2018-07-02T22:53:08.694Z,58.01
2018-07-02T22:55:48.711Z,58.00
2018-07-02T22:58:18.454Z,58.08
2018-07-02T23:00:48.151Z,58.78
2018-07-02T23:03:17.771Z,59.03
2018-07-02T23:05:46.901Z,59.47
2018-07-02T23:08:16.160Z,59.35
2018-07-02T23:10:45.763Z,59.97
2018-07-02T23:13:14.913Z,60.00
2018-07-02T23:15:44.600Z,60.14
2018-07-02T23:18:13.884Z,60.72
2018-07-02T23:20:43.268Z,61.59
2018-07-02T23:23:12.249Z,61.73
2018-07-02T23:25:41.457Z,62.04
2018-07-02T23:28:10.760Z,61.92
2018-07-02T23:30:40.008Z,63.06
2018-07-02T23:33:09.650Z,63.61
2018-07-02T23:35:39.428Z,64.47
2018-07-02T23:38:08.946Z,64.32
2018-07-02T23:40:37.897Z,64.82
2018-07-02T23:43:06.958Z,64.83
2018-07-02T23:45:36.743Z,64.83
2018-07-02T23:48:06.218Z,65.40
2018-07-02T23:50:35.503Z,65.65
2018-07-02T23:53:04.612Z,66.16
2018-07-02T23:55:33.611Z,66.38
2018-07-02T23:58:02.838Z,67.09
